Time;durP1;ratioP1;P1;durP2;ratioP2;P2;SDS_P1;SDS_P2;PMS_P1;PMS_P2;Temp;Humidity;BMP_temperature;BMP_pressure;BME280_temperature;BME280_humidity;BME280_pressure;Samples;Min_cycle;Max_cycle;Signal;HPM_P1;HPM_P2
2023/03/21 00:00:46;;;;;;;39.75;22.42;;;9.50;99.90;;;;;;5074082;28;20096;-93
2023/03/21 00:03:12;;;;;;;41.45;23.80;;;9.50;99.90;;;;;;5074958;28;20071;-93
2023/03/21 00:05:44;;;;;;;32.80;21.17;;;9.50;99.90;;;;;;5091522;28;20067;-93
2023/03/21 00:08:10;;;;;;;37.88;21.45;;;9.50;99.90;;;;;;5074640;28;20122;-93
2023/03/21 00:10:36;;;;;;;39.72;22.38;;;9.50;99.90;;;;;;5091314;28;20127;-93
2023/03/21 00:13:02;;;;;;;39.60;23.33;;;9.50;99.90;;;;;;5088294;28;20443;-92
2023/03/21 00:15:29;;;;;;;42.53;24.05;;;9.50;99.90;;;;;;5079142;28;20075;-92
2023/03/21 00:18:10;;;;;;;41.13;22.98;;;9.60;99.90;;;;;;5081213;28;20036;-92
2023/03/21 00:20:36;;;;;;;35.55;23.50;;;9.50;99.90;;;;;;5066684;28;20036;-94
2023/03/21 00:23:03;;;;;;;37.85;23.00;;;9.60;99.90;;;;;;5079597;28;20515;-92
2023/03/21 00:25:30;;;;;;;40.03;22.52;;;9.60;99.90;;;;;;5069564;28;20081;-92
2023/03/21 00:27:56;;;;;;;37.05;23.13;;;9.60;99.90;;;;;;5098906;28;20068;-93
2023/03/21 00:30:22;;;;;;;37.53;23.15;;;9.60;99.90;;;;;;5100570;28;20068;-93
2023/03/21 00:32:48;;;;;;;36.95;22.60;;;9.60;99.90;;;;;;5063806;28;20032;-93
2023/03/21 00:35:14;;;;;;;39.42;22.42;;;9.60;99.90;;;;;;5104819;28;20046;-93
2023/03/21 00:37:40;;;;;;;56.50;25.48;;;9.60;99.90;;;;;;5067651;28;20037;-93
2023/03/21 00:40:09;;;;;;;38.03;23.30;;;9.60;99.90;;;;;;5064234;28;20164;-93
2023/03/21 00:42:35;;;;;;;46.00;24.92;;;9.70;99.90;;;;;;5078732;28;20075;-92
2023/03/21 00:45:03;;;;;;;41.55;23.33;;;9.60;99.90;;;;;;5079512;28;20044;-93
2023/03/21 00:47:28;;;;;;;42.25;25.70;;;9.70;99.90;;;;;;5078925;28;20107;-94
2023/03/21 00:49:56;;;;;;;39.20;23.20;;;9.70;99.90;;;;;;5096526;28;20123;-94
2023/03/21 00:52:22;;;;;;;38.05;23.33;;;9.70;99.90;;;;;;5079039;28;20032;-94
2023/03/21 00:54:47;;;;;;;44.65;23.63;;;9.70;99.90;;;;;;5080975;28;20031;-93
2023/03/21 00:57:13;;;;;;;38.42;22.92;;;9.70;99.90;;;;;;5084217;28;20032;-94
2023/03/21 00:59:39;;;;;;;33.17;21.33;;;9.70;99.90;;;;;;5099693;28;20034;-94
2023/03/21 01:02:06;;;;;;;43.97;25.23;;;9.70;99.90;;;;;;5091648;28;20032;-94
2023/03/21 01:04:33;;;;;;;41.78;23.17;;;9.70;99.90;;;;;;5071866;28;20036;-94
2023/03/21 01:06:59;;;;;;;40.88;22.08;;;9.70;99.90;;;;;;5095947;28;20047;-93
2023/03/21 01:09:24;;;;;;;40.60;23.48;;;9.70;99.90;;;;;;5084054;28;20047;-94
2023/03/21 01:11:51;;;;;;;38.75;23.30;;;9.80;99.90;;;;;;5081236;28;20044;-93
2023/03/21 01:14:19;;;;;;;40.78;24.73;;;9.80;99.90;;;;;;5064204;28;20085;-93
2023/03/21 01:16:44;;;;;;;35.17;21.73;;;9.80;99.90;;;;;;5085076;28;20055;-93
2023/03/21 01:19:17;;;;;;;35.55;22.23;;;9.80;99.90;;;;;;5090000;28;20044;-93
2023/03/21 01:21:42;;;;;;;33.85;21.23;;;9.80;99.90;;;;;;5089934;28;20105;-92
2023/03/21 01:24:08;;;;;;;35.80;22.25;;;9.80;99.90;;;;;;5090549;28;20498;-93
2023/03/21 01:26:36;;;;;;;37.78;22.88;;;9.80;99.90;;;;;;5073602;28;20131;-92
2023/03/21 01:29:02;;;;;;;30.13;19.27;;;9.80;99.90;;;;;;5074551;28;20047;-93
2023/03/21 01:31:28;;;;;;;32.78;20.13;;;9.80;99.90;;;;;;5078073;28;20040;-93
2023/03/21 01:33:53;;;;;;;33.17;21.30;;;9.80;99.90;;;;;;5094328;28;20032;-92
2023/03/21 01:36:21;;;;;;;31.48;19.15;;;9.80;99.90;;;;;;5077601;28;20032;-93
2023/03/21 01:38:47;;;;;;;32.20;20.48;;;9.90;99.90;;;;;;5078281;28;20040;-92
2023/03/21 01:41:25;;;;;;;30.10;17.33;;;9.90;99.90;;;;;;5094478;28;20047;-92
2023/03/21 01:43:51;;;;;;;29.05;17.77;;;9.90;99.90;;;;;;5077782;28;20074;-92
2023/03/21 01:46:36;;;;;;;28.27;17.85;;;9.90;99.90;;;;;;5094503;28;20036;-92
2023/03/21 01:49:16;;;;;;;29.88;17.98;;;9.90;99.90;;;;;;5094560;28;20048;-92
2023/03/21 01:51:50;;;;;;;29.67;19.33;;;9.90;99.90;;;;;;5077150;28;20040;-92
2023/03/21 01:54:31;;;;;;;30.38;18.83;;;9.90;99.90;;;;;;5094176;28;20032;-93
2023/03/21 01:56:59;;;;;;;28.65;17.88;;;9.90;99.90;;;;;;5094889;28;20086;-92
2023/03/21 01:59:37;;;;;;;31.48;18.45;;;9.90;99.90;;;;;;5077288;28;20043;-92
2023/03/21 02:02:06;;;;;;;27.77;18.65;;;9.90;99.90;;;;;;5094335;28;20044;-92
2023/03/21 02:04:34;;;;;;;29.20;17.77;;;9.90;99.90;;;;;;5077135;28;20040;-92
2023/03/21 02:07:04;;;;;;;26.05;16.02;;;9.90;99.90;;;;;;5076016;28;20047;-92
2023/03/21 02:09:32;;;;;;;28.48;18.00;;;9.90;99.90;;;;;;5093980;28;20101;-92
2023/03/21 02:11:59;;;;;;;28.15;17.52;;;9.90;99.90;;;;;;5077093;28;20168;-93
2023/03/21 02:14:25;;;;;;;25.20;16.65;;;9.90;99.90;;;;;;5076756;28;20512;-92
2023/03/21 02:17:09;;;;;;;22.55;14.65;;;9.90;99.90;;;;;;5094585;28;20048;-92
2023/03/21 02:20:07;;;;;;;25.90;16.95;;;9.90;99.90;;;;;;5076665;28;20028;-93
2023/03/21 02:22:50;;;;;;;24.48;14.68;;;9.90;99.90;;;;;;5077402;28;20458;-92
2023/03/21 02:25:37;;;;;;;22.48;13.48;;;9.90;99.90;;;;;;5093832;28;20453;-92
2023/03/21 02:28:25;;;;;;;21.38;13.98;;;9.90;99.90;;;;;;5093642;28;20076;-92
2023/03/21 02:31:16;;;;;;;22.73;14.00;;;9.90;99.90;;;;;;5077148;28;20257;-92
2023/03/21 02:33:59;;;;;;;22.23;13.43;;;9.90;99.90;;;;;;5076973;28;20642;-93
2023/03/21 02:36:57;;;;;;;23.20;14.95;;;9.90;99.90;;;;;;5077251;28;20556;-94
2023/03/21 02:39:38;;;;;;;24.75;14.98;;;9.90;99.90;;;;;;5087166;28;20067;-94
2023/03/21 02:42:10;;;;;;;21.80;14.68;;;9.90;99.90;;;;;;5075924;28;20047;-94
2023/03/21 02:44:48;;;;;;;25.98;14.60;;;9.90;99.90;;;;;;5077031;28;20416;-93
2023/03/21 02:47:22;;;;;;;23.42;13.93;;;9.90;99.90;;;;;;5076354;28;20044;-94
2023/03/21 02:50:08;;;;;;;22.40;13.57;;;9.90;99.90;;;;;;5076541;28;20058;-94
2023/03/21 02:52:35;;;;;;;21.58;13.30;;;9.90;99.90;;;;;;5076146;28;20044;-94
2023/03/21 02:55:03;;;;;;;21.98;13.77;;;9.90;99.90;;;;;;5076973;28;20093;-94
2023/03/21 02:57:30;;;;;;;21.85;12.73;;;9.90;99.90;;;;;;5092550;28;20114;-93
2023/03/21 02:59:56;;;;;;;22.25;13.18;;;9.90;99.90;;;;;;5076820;28;20040;-94
2023/03/21 03:02:25;;;;;;;22.02;14.23;;;9.90;99.90;;;;;;5093271;28;20035;-94
2023/03/21 03:04:51;;;;;;;21.85;13.55;;;9.90;99.90;;;;;;5076048;28;20047;-93
2023/03/21 03:07:32;;;;;;;21.77;13.50;;;9.90;99.90;;;;;;5093702;28;20547;-94
2023/03/21 03:10:04;;;;;;;25.00;13.98;;;9.90;99.90;;;;;;5092971;28;20114;-94
2023/03/21 03:12:53;;;;;;;22.37;13.37;;;9.90;99.90;;;;;;5093423;28;20036;-93
2023/03/21 03:15:35;;;;;;;23.23;13.35;;;9.90;99.90;;;;;;5093857;28;20040;-94
2023/03/21 03:18:18;;;;;;;21.50;14.05;;;9.90;99.90;;;;;;5076114;28;20040;-93
2023/03/21 03:21:08;;;;;;;23.38;14.32;;;9.90;99.90;;;;;;5093890;28;20123;-94
2023/03/21 03:23:41;;;;;;;23.65;13.85;;;9.90;99.90;;;;;;5092543;28;20397;-94
2023/03/21 03:26:16;;;;;;;24.85;14.70;;;9.80;99.90;;;;;;5076351;28;20066;-94
2023/03/21 03:28:47;;;;;;;26.00;15.63;;;9.90;99.90;;;;;;5075681;28;20044;-94
2023/03/21 03:31:20;;;;;;;23.70;14.65;;;9.80;99.90;;;;;;5071828;28;20507;-93
2023/03/21 03:33:48;;;;;;;;;;;9.90;99.90;;;;;;5062283;28;20032;-94
2023/03/21 03:36:17;;;;;;;24.60;15.70;;;9.90;99.90;;;;;;5091488;28;19923;-94
2023/03/21 03:38:45;;;;;;;23.90;15.27;;;9.80;99.90;;;;;;5075009;28;20113;-94
2023/03/21 03:41:23;;;;;;;24.73;15.63;;;9.90;99.90;;;;;;5091829;28;20051;-94
2023/03/21 03:43:53;;;;;;;28.40;15.90;;;9.90;99.90;;;;;;5075433;28;20036;-94
2023/03/21 03:46:26;;;;;;;24.73;15.55;;;9.90;99.90;;;;;;5091766;28;20047;-95
2023/03/21 03:48:57;;;;;;;23.85;15.13;;;9.90;99.90;;;;;;5074846;28;20058;-94
2023/03/21 03:51:35;;;;;;;27.42;17.42;;;9.90;99.90;;;;;;5074997;28;20126;-92
2023/03/21 03:54:09;;;;;;;26.33;16.65;;;9.90;99.90;;;;;;5074039;28;20036;-94
2023/03/21 03:56:35;;;;;;;24.85;15.10;;;9.90;99.90;;;;;;5075251;28;20516;-95
2023/03/21 03:59:03;;;;;;;26.90;17.30;;;9.90;99.90;;;;;;5091262;28;20186;-93
2023/03/21 04:01:29;;;;;;;25.27;15.77;;;9.90;99.90;;;;;;5075131;28;20047;-94
2023/03/21 04:03:55;;;;;;;25.83;17.58;;;9.90;99.90;;;;;;5075113;28;20040;-93
2023/03/21 04:06:21;;;;;;;27.80;16.60;;;9.90;99.90;;;;;;5074708;28;20044;-94
2023/03/21 04:08:47;;;;;;;28.27;17.80;;;9.90;99.90;;;;;;5075360;28;20071;-93
2023/03/21 04:11:14;;;;;;;30.10;17.30;;;9.90;99.90;;;;;;5074472;28;20058;-93
2023/03/21 04:13:41;;;;;;;27.30;16.48;;;9.90;99.90;;;;;;5091299;28;20089;-93
2023/03/21 04:16:07;;;;;;;27.77;17.13;;;9.90;99.90;;;;;;5091030;28;20101;-92
2023/03/21 04:18:33;;;;;;;32.92;18.55;;;9.90;99.90;;;;;;5090659;28;20040;-93
2023/03/21 04:20:59;;;;;;;34.65;19.52;;;9.90;99.90;;;;;;5091398;28;20047;-94
2023/03/21 04:23:25;;;;;;;31.40;18.27;;;9.90;99.90;;;;;;5090998;28;20448;-94
2023/03/21 04:25:51;;;;;;;27.90;17.70;;;9.90;99.90;;;;;;5091192;28;20035;-94
2023/03/21 04:28:16;;;;;;;31.77;18.60;;;9.90;99.90;;;;;;5073935;28;20051;-94
2023/03/21 04:30:42;;;;;;;34.33;19.33;;;9.90;99.90;;;;;;5091089;28;20032;-94
2023/03/21 04:33:08;;;;;;;30.25;19.13;;;9.90;99.90;;;;;;5074266;28;20063;-94
2023/03/21 04:35:35;;;;;;;32.33;20.70;;;9.90;99.90;;;;;;5091213;28;20408;-94
2023/03/21 04:38:01;;;;;;;33.22;19.65;;;9.80;99.90;;;;;;5074377;28;20044;-93
2023/03/21 04:40:27;;;;;;;27.92;18.27;;;9.80;99.90;;;;;;5090814;28;20073;-94
2023/03/21 04:42:52;;;;;;;33.35;20.73;;;9.90;99.90;;;;;;5074773;28;20501;-95
2023/03/21 04:45:19;;;;;;;33.80;19.90;;;9.80;99.90;;;;;;5074345;28;20032;-94
2023/03/21 04:47:44;;;;;;;33.63;19.83;;;9.80;99.90;;;;;;5074130;28;20082;-95
2023/03/21 04:50:12;;;;;;;32.08;19.25;;;9.80;99.90;;;;;;5074859;28;20669;-93
2023/03/21 04:52:37;;;;;;;31.98;19.35;;;9.80;99.90;;;;;;5074173;28;20032;-93
2023/03/21 04:55:03;;;;;;;32.05;18.80;;;9.80;99.90;;;;;;5091307;28;20032;-94
2023/03/21 04:57:29;;;;;;;29.90;18.70;;;9.80;99.90;;;;;;5073834;28;20047;-93
2023/03/21 04:59:55;;;;;;;32.38;18.73;;;9.80;99.90;;;;;;5074058;28;20086;-95
2023/03/21 05:02:21;;;;;;;32.72;19.25;;;9.80;99.90;;;;;;5090987;28;20083;-94
2023/03/21 05:04:47;;;;;;;30.98;19.98;;;9.80;99.90;;;;;;5073472;28;20036;-94
2023/03/21 05:07:12;;;;;;;33.42;19.33;;;9.80;99.90;;;;;;5074560;28;20554;-93
2023/03/21 05:09:38;;;;;;;36.92;18.35;;;9.80;99.90;;;;;;5073827;28;20036;-95
2023/03/21 05:12:04;;;;;;;31.08;19.30;;;9.80;99.90;;;;;;5074103;28;20036;-93
2023/03/21 05:14:29;;;;;;;33.42;19.10;;;9.80;99.90;;;;;;5074505;28;20047;-94
2023/03/21 05:16:56;;;;;;;31.25;20.10;;;9.80;99.90;;;;;;5073926;28;20508;-94
2023/03/21 05:19:33;;;;;;;32.22;17.38;;;9.80;99.90;;;;;;5074039;28;20048;-94
2023/03/21 05:22:03;;;;;;;28.02;17.65;;;9.80;99.90;;;;;;5074700;28;20170;-94
2023/03/21 05:24:30;;;;;;;28.33;17.63;;;9.80;99.90;;;;;;5073865;28;20499;-94
2023/03/21 05:27:00;;;;;;;30.60;19.73;;;9.80;99.90;;;;;;5073861;28;20036;-93
2023/03/21 05:29:30;;;;;;;28.40;17.05;;;9.80;99.90;;;;;;5089921;28;20562;-94
2023/03/21 05:31:57;;;;;;;32.72;19.30;;;9.80;99.90;;;;;;5073764;28;20501;-93
2023/03/21 05:34:24;;;;;;;31.95;20.77;;;9.80;99.90;;;;;;5073529;28;20481;-94
2023/03/21 05:36:50;;;;;;;31.27;19.17;;;9.80;99.90;;;;;;5073640;28;20057;-93
2023/03/21 05:39:16;;;;;;;32.00;19.45;;;9.80;99.90;;;;;;5073468;28;20039;-94
2023/03/21 05:41:41;;;;;;;33.15;19.25;;;9.80;99.90;;;;;;5073886;28;20517;-95
2023/03/21 05:44:07;;;;;;;32.90;19.83;;;9.80;99.90;;;;;;5073672;28;20078;-93
2023/03/21 05:46:33;;;;;;;33.58;19.55;;;9.80;99.90;;;;;;5073818;28;20109;-94
2023/03/21 05:48:59;;;;;;;30.60;18.67;;;9.80;99.90;;;;;;5074013;28;20138;-94
2023/03/21 05:51:24;;;;;;;28.90;17.23;;;9.70;99.90;;;;;;5091254;28;20044;-94
2023/03/21 05:53:50;;;;;;;34.70;19.75;;;9.70;99.90;;;;;;5073634;28;20059;-94
2023/03/21 05:56:16;;;;;;;31.60;18.63;;;9.80;99.90;;;;;;5074495;28;20396;-94
2023/03/21 05:58:42;;;;;;;30.98;17.70;;;9.80;99.90;;;;;;5090148;28;20489;-93
2023/03/21 06:01:08;;;;;;;26.25;16.30;;;9.80;99.90;;;;;;5074513;28;20043;-94
2023/03/21 06:03:34;;;;;;;27.42;15.63;;;9.80;99.90;;;;;;5090841;28;20624;-94
2023/03/21 06:06:02;;;;;;;24.45;15.02;;;9.70;99.90;;;;;;5073345;28;20036;-93
2023/03/21 06:08:28;;;;;;;25.40;15.65;;;9.70;99.90;;;;;;5073963;28;20055;-94
2023/03/21 06:10:54;;;;;;;27.30;16.08;;;9.70;99.90;;;;;;5090960;28;20072;-94
2023/03/21 06:13:20;;;;;;;28.25;16.10;;;9.80;99.90;;;;;;5073368;28;20035;-93
2023/03/21 06:15:46;;;;;;;27.50;16.45;;;9.70;99.90;;;;;;5073601;28;20035;-94
2023/03/21 06:18:12;;;;;;;28.55;16.63;;;9.70;99.90;;;;;;5073641;28;20458;-93
2023/03/21 06:20:38;;;;;;;28.48;17.83;;;9.70;99.90;;;;;;5057260;28;20037;-93
2023/03/21 06:23:04;;;;;;;29.83;17.45;;;9.80;99.90;;;;;;5068574;28;20059;-93
2023/03/21 06:25:29;;;;;;;28.00;16.65;;;9.70;99.90;;;;;;5093678;28;20078;-93
2023/03/21 06:27:55;;;;;;;25.67;16.08;;;9.80;99.90;;;;;;5076171;28;20132;-94
2023/03/21 06:30:21;;;;;;;26.77;16.10;;;9.80;99.90;;;;;;5076672;28;20081;-93
2023/03/21 06:32:46;;;;;;;26.70;15.98;;;9.80;99.90;;;;;;5111151;28;20044;-94
2023/03/21 06:35:12;;;;;;;26.95;16.27;;;9.80;99.90;;;;;;5092860;28;20123;-93
2023/03/21 06:37:38;;;;;;;24.90;14.93;;;9.80;99.90;;;;;;5076515;28;20439;-94
2023/03/21 06:40:04;;;;;;;23.63;14.73;;;9.80;99.90;;;;;;5093343;28;20040;-94
2023/03/21 06:42:31;;;;;;;22.50;14.05;;;9.80;99.90;;;;;;5075987;28;20489;-95
2023/03/21 06:44:57;;;;;;;24.75;14.88;;;9.80;99.90;;;;;;5093967;28;20413;-95
2023/03/21 06:47:23;;;;;;;24.13;14.50;;;9.80;99.90;;;;;;5076321;28;20180;-93
2023/03/21 06:49:49;;;;;;;22.30;13.95;;;9.80;99.90;;;;;;5093840;28;20515;-94
2023/03/21 06:52:14;;;;;;;22.52;12.80;;;9.80;99.90;;;;;;5076510;28;20044;-94
2023/03/21 06:54:40;;;;;;;24.27;13.75;;;9.80;99.90;;;;;;5075624;28;20087;-94
2023/03/21 06:57:06;;;;;;;27.15;14.70;;;9.90;99.90;;;;;;5076426;28;20040;-93
2023/03/21 06:59:31;;;;;;;24.33;13.32;;;9.80;99.90;;;;;;5075491;28;20433;-93
2023/03/21 07:01:57;;;;;;;20.40;12.25;;;9.90;99.90;;;;;;5076902;28;20052;-93
2023/03/21 07:04:23;;;;;;;20.35;12.02;;;9.90;99.90;;;;;;5076233;28;20549;-93
2023/03/21 07:06:48;;;;;;;21.48;12.35;;;9.90;99.90;;;;;;5075868;28;20048;-93
2023/03/21 07:09:16;;;;;;;20.17;12.23;;;9.90;99.90;;;;;;5075836;28;20139;-94
2023/03/21 07:11:42;;;;;;;18.98;11.45;;;9.90;99.90;;;;;;5075212;28;20048;-94
2023/03/21 07:14:08;;;;;;;24.02;13.73;;;9.90;99.90;;;;;;5092161;28;20040;-93
2023/03/21 07:16:33;;;;;;;21.95;12.65;;;9.90;99.90;;;;;;5075658;28;20119;-93
2023/03/21 07:18:59;;;;;;;22.10;12.15;;;9.90;99.90;;;;;;5092323;28;20491;-93
2023/03/21 07:21:25;;;;;;;18.58;11.05;;;9.90;99.90;;;;;;5075346;28;20066;-93
2023/03/21 07:23:50;;;;;;;19.15;12.30;;;9.80;99.90;;;;;;5075815;28;20089;-93
2023/03/21 07:26:17;;;;;;;18.70;11.38;;;9.80;99.90;;;;;;5074492;28;20032;-92
2023/03/21 07:28:43;;;;;;;18.65;10.68;;;9.80;99.90;;;;;;5075177;28;20133;-93
2023/03/21 07:31:14;;;;;;;18.42;11.63;;;9.80;99.90;;;;;;5092070;28;20047;-93
2023/03/21 07:33:39;;;;;;;20.15;10.90;;;9.80;99.90;;;;;;5075201;28;20080;-93
2023/03/21 07:36:14;;;;;;;20.85;12.00;;;9.80;99.90;;;;;;5075114;28;20036;-93
2023/03/21 07:38:40;;;;;;;20.65;11.70;;;9.80;99.90;;;;;;5075672;28;20032;-94
2023/03/21 07:41:05;;;;;;;21.33;11.85;;;9.80;99.90;;;;;;5075778;28;20040;-94
2023/03/21 07:43:31;;;;;;;20.70;12.32;;;9.80;99.90;;;;;;5075685;28;20428;-94
2023/03/21 07:45:57;;;;;;;19.95;11.23;;;9.80;99.90;;;;;;5075335;28;20521;-93
2023/03/21 07:48:23;;;;;;;18.92;11.73;;;9.80;99.90;;;;;;5092425;28;20504;-94
2023/03/21 07:50:49;;;;;;;24.08;12.35;;;9.80;99.90;;;;;;5075182;28;20040;-94
2023/03/21 07:53:15;;;;;;;25.55;13.27;;;9.80;99.90;;;;;;5075087;28;20512;-93
2023/03/21 07:55:40;;;;;;;18.80;10.68;;;9.80;99.90;;;;;;5074397;28;20032;-93
2023/03/21 07:58:06;;;;;;;24.02;12.85;;;9.80;99.90;;;;;;5074989;28;20397;-93
2023/03/21 08:00:32;;;;;;;21.20;12.07;;;9.80;99.90;;;;;;5089885;28;20451;-93
2023/03/21 08:02:58;;;;;;;20.75;11.68;;;9.80;99.90;;;;;;5075438;28;20039;-93
2023/03/21 08:05:32;;;;;;;20.80;11.93;;;9.80;99.90;;;;;;5075514;28;20040;-93
2023/03/21 08:07:57;;;;;;;21.75;11.65;;;9.80;99.90;;;;;;5090662;28;20036;-93
2023/03/21 08:10:23;;;;;;;20.20;12.15;;;9.90;99.90;;;;;;5075931;28;20051;-95
2023/03/21 08:12:49;;;;;;;18.90;11.50;;;9.90;99.90;;;;;;5074944;28;20437;-93
2023/03/21 08:15:15;;;;;;;22.73;11.13;;;9.90;99.90;;;;;;5074687;28;20032;-94
2023/03/21 08:17:44;;;;;;;18.77;11.43;;;9.90;99.90;;;;;;5091674;28;20032;-93
2023/03/21 08:20:12;;;;;;;22.17;11.98;;;9.90;99.90;;;;;;5073916;28;20032;-94
2023/03/21 08:22:38;;;;;;;20.45;11.23;;;9.90;99.90;;;;;;5091419;28;20074;-93
2023/03/21 08:25:06;;;;;;;16.83;9.93;;;9.90;99.90;;;;;;5073894;28;20071;-93
2023/03/21 08:27:33;;;;;;;17.20;9.25;;;9.90;99.90;;;;;;5090457;28;20043;-94
2023/03/21 08:29:59;;;;;;;17.77;9.23;;;9.90;99.90;;;;;;5074176;28;20043;-94
2023/03/21 08:32:28;;;;;;;17.73;9.10;;;9.90;99.90;;;;;;5073223;28;20044;-93
2023/03/21 08:35:00;;;;;;;21.10;10.48;;;9.90;99.90;;;;;;5073783;28;20035;-94
2023/03/21 08:37:27;;;;;;;18.42;8.95;;;9.90;99.90;;;;;;5074562;28;20039;-94
2023/03/21 08:39:53;;;;;;;22.30;11.90;;;9.90;99.90;;;;;;5088849;28;20087;-93
2023/03/21 08:42:20;;;;;;;18.73;9.88;;;10.00;99.90;;;;;;5074017;28;20135;-94
2023/03/21 08:44:46;;;;;;;20.30;9.77;;;10.00;99.90;;;;;;5073769;28;20044;-94
2023/03/21 08:47:12;;;;;;;24.67;10.88;;;10.00;99.90;;;;;;5073613;28;20047;-93
2023/03/21 08:49:37;;;;;;;21.20;10.45;;;10.10;99.90;;;;;;5073163;28;20154;-93
2023/03/21 08:52:05;;;;;;;21.05;10.30;;;10.00;99.90;;;;;;5072999;28;20050;-94
2023/03/21 08:54:30;;;;;;;20.00;11.07;;;10.10;99.90;;;;;;5073502;28;20039;-94
2023/03/21 08:56:56;;;;;;;24.48;10.63;;;10.10;99.90;;;;;;5090555;28;20040;-94
2023/03/21 08:59:22;;;;;;;21.70;11.57;;;10.10;99.90;;;;;;5073548;28;20524;-93
2023/03/21 09:01:47;;;;;;;17.90;9.68;;;10.10;99.90;;;;;;5074443;28;20040;-93
2023/03/21 09:04:13;;;;;;;23.88;10.60;;;10.10;99.90;;;;;;5073464;28;20051;-94
2023/03/21 09:06:45;;;;;;;22.05;9.98;;;10.20;99.90;;;;;;5073507;28;20051;-94
2023/03/21 09:09:11;;;;;;;19.50;10.05;;;10.20;99.90;;;;;;5072755;28;20170;-93
2023/03/21 09:11:37;;;;;;;18.23;10.68;;;10.20;99.90;;;;;;5088781;28;20131;-92
2023/03/21 09:14:03;;;;;;;22.42;10.73;;;10.20;99.90;;;;;;5089067;28;20040;-92
2023/03/21 09:16:30;;;;;;;17.63;9.82;;;10.20;99.90;;;;;;5071332;28;20032;-93
2023/03/21 09:18:57;;;;;;;21.38;11.32;;;10.20;99.90;;;;;;5072875;28;20089;-93
2023/03/21 09:21:25;;;;;;;20.90;10.23;;;10.20;99.90;;;;;;5073626;28;20040;-94
2023/03/21 09:23:53;;;;;;;15.63;8.60;;;10.20;99.90;;;;;;5090290;28;20047;-93
2023/03/21 09:26:19;;;;;;;17.95;10.88;;;10.30;99.90;;;;;;5073913;28;20063;-93
2023/03/21 09:28:46;;;;;;;18.27;9.93;;;10.30;99.90;;;;;;5089384;28;20036;-92
2023/03/21 09:31:15;;;;;;;23.70;10.18;;;10.30;99.90;;;;;;5090238;28;20131;-93
2023/03/21 09:33:42;;;;;;;24.45;10.32;;;10.30;99.90;;;;;;5090520;28;20036;-93
2023/03/21 09:36:10;;;;;;;21.83;10.05;;;10.30;99.90;;;;;;5072243;28;20489;-93
2023/03/21 09:38:39;;;;;;;20.30;10.25;;;10.30;99.90;;;;;;5072982;28;20057;-93
2023/03/21 09:41:27;;;;;;;20.58;10.38;;;10.30;99.90;;;;;;5089178;28;20047;-93
2023/03/21 09:44:07;;;;;;;22.33;9.75;;;10.40;99.90;;;;;;5073398;28;20044;-93
2023/03/21 09:46:47;;;;;;;21.40;10.93;;;10.40;99.90;;;;;;5072389;28;20044;-93
2023/03/21 09:49:21;;;;;;;17.77;9.90;;;10.40;99.90;;;;;;5073229;28;20089;-93
2023/03/21 09:51:51;;;;;;;17.48;9.85;;;10.40;99.90;;;;;;5092849;28;20127;-93
2023/03/21 09:54:32;;;;;;;23.10;10.65;;;10.40;99.90;;;;;;5076248;28;20493;-93
2023/03/21 09:57:13;;;;;;;21.98;10.50;;;10.50;99.90;;;;;;5076841;28;20032;-94
2023/03/21 09:59:40;;;;;;;22.65;10.93;;;10.50;99.90;;;;;;5076192;28;20092;-93
2023/03/21 10:02:44;;;;;;;20.90;11.45;;;10.50;99.90;;;;;;5077610;28;20397;-94
2023/03/21 10:05:17;;;;;;;24.48;11.80;;;10.60;99.90;;;;;;5093570;28;20122;-93
2023/03/21 10:07:46;;;;;;;;;;;10.60;99.90;;;;;;5095820;28;20044;-94
2023/03/21 10:10:16;;;;;;;20.15;10.48;;;10.50;99.90;;;;;;5076533;28;20277;-92
2023/03/21 10:12:43;;;;;;;21.38;9.90;;;10.60;99.90;;;;;;5076285;28;20040;-93
2023/03/21 10:15:14;;;;;;;21.00;11.55;;;10.60;99.90;;;;;;5075212;28;20043;-93
2023/03/21 10:17:43;;;;;;;20.48;10.38;;;10.60;99.90;;;;;;5073748;28;20489;-94
2023/03/21 10:20:17;;;;;;;19.75;10.32;;;10.60;99.90;;;;;;5100842;28;20064;-93
2023/03/21 10:22:45;;;;;;;17.40;9.77;;;10.60;99.90;;;;;;5082892;28;20124;-94
2023/03/21 10:25:16;;;;;;;19.80;11.40;;;10.60;99.90;;;;;;5099311;28;20047;-93
2023/03/21 10:27:43;;;;;;;19.88;10.35;;;10.60;99.90;;;;;;5083619;28;20647;-93
2023/03/21 10:30:20;;;;;;;17.73;10.05;;;10.60;99.90;;;;;;5082162;28;20044;-93
2023/03/21 10:32:46;;;;;;;24.00;10.57;;;10.70;99.90;;;;;;5101426;28;20033;-93
2023/03/21 10:35:13;;;;;;;22.95;11.13;;;10.70;99.90;;;;;;5083973;28;20032;-92
2023/03/21 10:37:39;;;;;;;19.05;10.68;;;10.70;99.90;;;;;;5083751;28;20036;-92
2023/03/21 10:40:08;;;;;;;20.83;10.02;;;10.70;99.90;;;;;;5064197;28;20044;-93
2023/03/21 10:42:35;;;;;;;19.05;10.60;;;10.70;99.90;;;;;;5100928;28;20454;-92
2023/03/21 10:45:01;;;;;;;19.98;11.00;;;10.80;99.90;;;;;;5101603;28;20086;-93
2023/03/21 10:47:32;;;;;;;22.83;10.45;;;10.80;99.90;;;;;;5109874;28;20043;-94
2023/03/21 10:50:06;;;;;;;22.63;11.02;;;10.80;99.90;;;;;;5101823;28;20588;-94
2023/03/21 10:52:34;;;;;;;21.80;10.80;;;10.80;99.90;;;;;;5080639;28;20091;-94
2023/03/21 10:55:16;;;;;;;21.75;11.25;;;10.80;99.90;;;;;;5079369;28;20054;-93
2023/03/21 10:57:42;;;;;;;19.75;10.05;;;10.80;99.90;;;;;;5099325;28;20036;-94
2023/03/21 11:00:24;;;;;;;21.75;11.50;;;10.80;99.90;;;;;;5081406;28;20383;-93
2023/03/21 11:02:52;;;;;;;19.77;9.93;;;10.80;99.90;;;;;;5064980;28;20127;-94
2023/03/21 11:05:38;;;;;;;18.92;10.38;;;10.80;99.90;;;;;;5082775;28;20513;-93
2023/03/21 11:08:17;;;;;;;19.33;10.35;;;10.80;99.90;;;;;;5088567;28;20063;-93
2023/03/21 11:11:02;;;;;;;18.65;9.63;;;10.90;99.90;;;;;;5067169;28;20085;-93
2023/03/21 11:13:43;;;;;;;17.90;9.02;;;10.90;99.90;;;;;;5085591;28;20043;-93
2023/03/21 11:16:09;;;;;;;18.85;8.75;;;10.90;99.90;;;;;;5063364;28;20035;-92
2023/03/21 11:18:50;;;;;;;15.82;8.45;;;11.00;99.90;;;;;;5097318;28;20061;-92
2023/03/21 11:21:16;;;;;;;17.10;8.38;;;11.00;99.90;;;;;;5085173;28;20040;-94
2023/03/21 11:23:48;;;;;;;18.77;9.05;;;11.10;99.90;;;;;;5066433;28;20040;-92
2023/03/21 11:26:35;;;;;;;17.33;7.88;;;11.10;99.90;;;;;;5069150;28;20501;-93
2023/03/21 11:29:25;;;;;;;18.25;8.02;;;11.10;99.90;;;;;;5072168;28;20048;-94
2023/03/21 11:31:51;;;;;;;14.73;7.03;;;11.20;99.90;;;;;;5068819;28;20043;-93
2023/03/21 11:34:27;;;;;;;16.92;7.78;;;11.20;99.90;;;;;;5096872;28;20145;-94
2023/03/21 11:37:00;;;;;;;16.73;7.63;;;11.30;99.90;;;;;;5088769;28;20051;-93
2023/03/21 11:39:39;;;;;;;14.50;7.18;;;11.40;99.90;;;;;;5108379;28;20028;-93
2023/03/21 11:42:29;;;;;;;13.38;6.40;;;11.40;99.90;;;;;;5092023;28;20040;-93
2023/03/21 11:45:10;;;;;;;13.10;6.65;;;11.50;99.90;;;;;;5074211;28;20618;-93
2023/03/21 11:47:36;;;;;;;13.63;6.55;;;11.60;99.90;;;;;;5066212;28;20036;-94
2023/03/21 11:50:24;;;;;;;14.48;6.82;;;11.60;99.90;;;;;;5064825;28;20071;-94
2023/03/21 11:53:26;;;;;;;15.02;6.30;;;11.60;99.90;;;;;;5066730;28;20032;-94
2023/03/21 11:56:02;;;;;;;13.35;6.28;;;11.70;99.90;;;;;;5071538;28;20067;-93
2023/03/21 11:58:33;;;;;;;14.73;6.45;;;11.70;99.90;;;;;;5069942;28;20104;-94
2023/03/21 12:01:38;;;;;;;13.05;5.95;;;11.70;99.90;;;;;;5074747;28;20040;-93
2023/03/21 12:04:10;;;;;;;12.25;6.05;;;11.80;99.90;;;;;;5028451;28;20071;-93
2023/03/21 12:06:42;;;;;;;17.15;7.22;;;11.80;99.90;;;;;;5075591;28;20036;-94
2023/03/21 12:09:39;;;;;;;13.65;6.70;;;11.90;99.90;;;;;;5074305;28;20036;-95
2023/03/21 12:13:00;;;;;;;13.02;6.10;;;12.00;99.90;;;;;;5054407;28;20086;-93
2023/03/21 12:15:35;;;;;;;14.05;6.00;;;12.00;99.90;;;;;;5017481;28;20517;-93
2023/03/21 12:18:13;;;;;;;14.77;6.80;;;12.10;99.90;;;;;;5070913;28;20037;-94
2023/03/21 12:20:55;;;;;;;15.43;6.55;;;12.10;99.90;;;;;;5054012;28;20040;-95
2023/03/21 12:23:27;;;;;;;14.73;6.40;;;12.20;99.90;;;;;;5070417;28;20473;-93
2023/03/21 12:26:08;;;;;;;12.43;6.00;;;12.30;99.90;;;;;;5059479;28;20047;-94
2023/03/21 12:28:55;;;;;;;13.10;5.97;;;12.30;99.90;;;;;;5070209;28;20039;-94
2023/03/21 12:31:20;;;;;;;14.30;7.05;;;12.30;99.90;;;;;;5082076;28;20127;-93
2023/03/21 12:34:05;;;;;;;11.13;5.35;;;12.30;99.90;;;;;;5082990;28;20119;-94
2023/03/21 12:37:08;;;;;;;17.77;6.60;;;12.40;99.90;;;;;;5068979;28;20089;-91
2023/03/21 12:39:36;;;;;;;14.43;5.75;;;12.40;99.90;;;;;;5098473;28;20028;-90
2023/03/21 12:42:13;;;;;;;11.05;5.50;;;12.40;99.90;;;;;;5096632;28;20886;-94
2023/03/21 12:45:03;;;;;;;12.23;5.53;;;12.40;99.90;;;;;;5070657;28;20069;-94
2023/03/21 12:47:32;;;;;;;11.90;5.95;;;12.30;99.90;;;;;;5077354;28;20046;-94
2023/03/21 12:50:14;;;;;;;14.50;6.30;;;12.30;99.90;;;;;;5090731;28;20094;-95
2023/03/21 12:52:44;;;;;;;13.75;5.55;;;12.30;99.90;;;;;;5074833;28;20047;-96